NKS1834 KDTW-KDFW
Flight info
| Callsign | NKS1834 |
|---|---|
| Flight time | 2h 24m |
| Altitude | 36000 |
| Route | SNDRS3 BGHRT STL RZC FSM RRNET SEEVR4 |
| Aircraft | A21N/M-SDE2E3FGHIRWXY/LB1 |
Departure
| Time | 2026-05-04 02:31 |
|---|---|
| Airport | Detroit Metropolitan Wayne County Airport (KDTW) |
Arrival
| Time | 2026-05-04 04:56 |
|---|---|
| Airport | Dallas Fort Worth International Airport (KDFW) |
| Time | Latitude | Longitude | Altitude | Speed | Heading |
|---|---|---|---|---|---|
| 2026-05-04 01:44 | 42.22758 | -83.34795 | 653 ft | 0 kts | 120° |
| 2026-05-04 02:15 | 42.22761 | -83.34799 | 651 ft | 4 kts | 90° |
| 2026-05-04 02:15 | 42.22764 | -83.34808 | 651 ft | 4 kts | 121° |
| 2026-05-04 02:15 | 42.22781 | -83.34835 | 653 ft | 4 kts | 148° |
| 2026-05-04 02:16 | 42.22804 | -83.34845 | 651 ft | 4 kts | 187° |
| 2026-05-04 02:16 | 42.22819 | -83.34839 | 652 ft | 1 kts | 208° |
| 2026-05-04 02:16 | 42.22821 | -83.34838 | 651 ft | 0 kts | 208° |
| 2026-05-04 02:22 | 42.22806 | -83.34849 | 653 ft | 14 kts | 209° |
| 2026-05-04 02:22 | 42.22712 | -83.34918 | 652 ft | 16 kts | 208° |
| 2026-05-04 02:23 | 42.22609 | -83.34991 | 651 ft | 17 kts | 207° |
| 2026-05-04 02:23 | 42.22499 | -83.35073 | 654 ft | 18 kts | 210° |
| 2026-05-04 02:23 | 42.22404 | -83.35191 | 652 ft | 20 kts | 233° |
| 2026-05-04 02:23 | 42.22308 | -83.35326 | 652 ft | 21 kts | 217° |
| 2026-05-04 02:24 | 42.22182 | -83.35428 | 651 ft | 22 kts | 208° |
| 2026-05-04 02:24 | 42.22047 | -83.35527 | 651 ft | 23 kts | 208° |
| 2026-05-04 02:24 | 42.21931 | -83.35612 | 651 ft | 19 kts | 208° |
| 2026-05-04 02:24 | 42.21818 | -83.35597 | 651 ft | 20 kts | 90° |
| 2026-05-04 02:25 | 42.21823 | -83.35430 | 651 ft | 18 kts | 89° |
| 2026-05-04 02:25 | 42.21826 | -83.35257 | 653 ft | 19 kts | 88° |
| 2026-05-04 02:25 | 42.21829 | -83.35071 | 652 ft | 20 kts | 89° |
| 2026-05-04 02:25 | 42.21832 | -83.34876 | 652 ft | 21 kts | 89° |
| 2026-05-04 02:26 | 42.21836 | -83.34678 | 652 ft | 21 kts | 88° |
| 2026-05-04 02:26 | 42.21863 | -83.34501 | 652 ft | 20 kts | 31° |
| 2026-05-04 02:26 | 42.21984 | -83.34408 | 651 ft | 21 kts | 29° |
| 2026-05-04 02:26 | 42.22113 | -83.34313 | 651 ft | 22 kts | 28° |
| 2026-05-04 02:27 | 42.22247 | -83.34214 | 651 ft | 23 kts | 28° |
| 2026-05-04 02:27 | 42.22389 | -83.34110 | 651 ft | 24 kts | 28° |
| 2026-05-04 02:27 | 42.22536 | -83.34002 | 654 ft | 23 kts | 28° |
| 2026-05-04 02:27 | 42.22669 | -83.33905 | 653 ft | 18 kts | 27° |
| 2026-05-04 02:28 | 42.22753 | -83.33811 | 651 ft | 10 kts | 87° |
| 2026-05-04 02:28 | 42.22753 | -83.33805 | 651 ft | 0 kts | 99° |
| 2026-05-04 02:29 | 42.22747 | -83.33783 | 652 ft | 5 kts | 121° |
| 2026-05-04 02:29 | 42.22714 | -83.33731 | 654 ft | 10 kts | 156° |
| 2026-05-04 02:29 | 42.22642 | -83.33753 | 654 ft | 1 kts | 205° |
| 2026-05-04 02:30 | 42.22619 | -83.33770 | 654 ft | 19 kts | 207° |
| 2026-05-04 02:30 | 42.22444 | -83.33899 | 654 ft | 68 kts | 208° |
| 2026-05-04 02:31 | 42.21811 | -83.34366 | 653 ft | 137 kts | 209° |
| 2026-05-04 02:31 | 42.20901 | -83.35064 | 989 ft | 152 kts | 210° |
| 2026-05-04 02:31 | 42.20003 | -83.35807 | 1612 ft | 152 kts | 210° |
| 2026-05-04 02:31 | 42.19064 | -83.36452 | 2212 ft | 151 kts | 200° |
| 2026-05-04 02:32 | 42.18057 | -83.36820 | 2787 ft | 149 kts | 195° |
| 2026-05-04 02:32 | 42.17067 | -83.37177 | 3393 ft | 147 kts | 199° |
| 2026-05-04 02:32 | 42.16074 | -83.37552 | 3942 ft | 150 kts | 202° |
| 2026-05-04 02:32 | 42.15049 | -83.37939 | 4477 ft | 155 kts | 204° |
| 2026-05-04 02:33 | 42.13999 | -83.38339 | 5041 ft | 158 kts | 203° |
| 2026-05-04 02:33 | 42.12957 | -83.38728 | 5612 ft | 160 kts | 203° |
| 2026-05-04 02:33 | 42.11879 | -83.39125 | 6187 ft | 162 kts | 204° |
| 2026-05-04 02:33 | 42.10792 | -83.39532 | 6760 ft | 163 kts | 204° |
| 2026-05-04 02:34 | 42.09719 | -83.39930 | 7291 ft | 153 kts | 205° |
| 2026-05-04 02:34 | 42.08625 | -83.40359 | 7797 ft | 176 kts | 206° |
| 2026-05-04 02:34 | 42.07421 | -83.40917 | 8591 ft | 194 kts | 208° |
| 2026-05-04 02:34 | 42.06339 | -83.41764 | 9562 ft | 171 kts | 226° |
| 2026-05-04 02:35 | 42.05420 | -83.42739 | 10168 ft | 168 kts | 224° |
| 2026-05-04 02:35 | 42.04479 | -83.43646 | 10729 ft | 164 kts | 224° |
| 2026-05-04 02:35 | 42.03566 | -83.44549 | 11240 ft | 162 kts | 224° |
| 2026-05-04 02:35 | 42.02661 | -83.45439 | 11701 ft | 160 kts | 224° |
| 2026-05-04 02:36 | 42.01764 | -83.46323 | 12118 ft | 159 kts | 224° |
| 2026-05-04 02:36 | 42.00897 | -83.47195 | 12496 ft | 159 kts | 224° |
| 2026-05-04 02:36 | 42.00005 | -83.48081 | 12875 ft | 160 kts | 224° |
| 2026-05-04 02:36 | 41.99100 | -83.48976 | 13251 ft | 162 kts | 224° |
| 2026-05-04 02:37 | 41.98201 | -83.49893 | 13613 ft | 163 kts | 225° |
| 2026-05-04 02:37 | 41.97398 | -83.50945 | 13962 ft | 162 kts | 233° |
| 2026-05-04 02:37 | 41.96495 | -83.51929 | 14184 ft | 176 kts | 219° |
| 2026-05-04 02:37 | 41.95421 | -83.52853 | 14342 ft | 190 kts | 222° |
| 2026-05-04 02:38 | 41.94313 | -83.53942 | 14497 ft | 206 kts | 223° |
| 2026-05-04 02:38 | 41.93124 | -83.55157 | 14671 ft | 224 kts | 223° |
| 2026-05-04 02:38 | 41.91855 | -83.56463 | 14844 ft | 241 kts | 223° |
| 2026-05-04 02:38 | 41.90469 | -83.57891 | 15003 ft | 261 kts | 223° |
| 2026-05-04 02:39 | 41.88981 | -83.59426 | 15173 ft | 280 kts | 223° |
| 2026-05-04 02:39 | 41.87385 | -83.61070 | 15378 ft | 298 kts | 222° |
| 2026-05-04 02:39 | 41.85687 | -83.62818 | 15590 ft | 316 kts | 222° |
| 2026-05-04 02:39 | 41.83902 | -83.64658 | 15924 ft | 329 kts | 222° |
| 2026-05-04 02:40 | 41.82054 | -83.66557 | 16326 ft | 340 kts | 222° |
| 2026-05-04 02:40 | 41.80136 | -83.68524 | 16603 ft | 354 kts | 221° |
| 2026-05-04 02:40 | 41.78154 | -83.70553 | 17097 ft | 361 kts | 221° |
| 2026-05-04 02:40 | 41.76148 | -83.72603 | 17671 ft | 364 kts | 222° |
| 2026-05-04 02:41 | 41.74144 | -83.74651 | 18094 ft | 367 kts | 222° |
| 2026-05-04 02:41 | 41.72096 | -83.76744 | 18610 ft | 371 kts | 222° |
| 2026-05-04 02:41 | 41.70022 | -83.78830 | 19203 ft | 374 kts | 219° |
| 2026-05-04 02:41 | 41.67807 | -83.80710 | 19775 ft | 378 kts | 216° |
| 2026-05-04 02:42 | 41.65542 | -83.82526 | 20325 ft | 381 kts | 216° |
| 2026-05-04 02:42 | 41.63271 | -83.84339 | 20843 ft | 383 kts | 216° |
| 2026-05-04 02:42 | 41.60962 | -83.86183 | 21366 ft | 386 kts | 216° |
| 2026-05-04 02:42 | 41.58655 | -83.88027 | 21877 ft | 388 kts | 216° |
| 2026-05-04 02:43 | 41.56364 | -83.89862 | 22363 ft | 390 kts | 216° |
| 2026-05-04 02:43 | 41.54034 | -83.91729 | 22847 ft | 392 kts | 216° |
| 2026-05-04 02:43 | 41.51680 | -83.93613 | 23311 ft | 394 kts | 216° |
| 2026-05-04 02:43 | 41.49319 | -83.95502 | 23762 ft | 397 kts | 216° |
| 2026-05-04 02:44 | 41.46940 | -83.97401 | 24208 ft | 399 kts | 216° |
| 2026-05-04 02:44 | 41.44551 | -83.99310 | 24640 ft | 401 kts | 216° |
| 2026-05-04 02:44 | 41.42150 | -84.01224 | 25063 ft | 403 kts | 216° |
| 2026-05-04 02:44 | 41.39734 | -84.03149 | 25441 ft | 406 kts | 216° |
| 2026-05-04 02:45 | 41.37302 | -84.05088 | 25824 ft | 409 kts | 216° |
| 2026-05-04 02:45 | 41.34859 | -84.07035 | 26209 ft | 411 kts | 216° |
| 2026-05-04 02:45 | 41.32400 | -84.08988 | 26594 ft | 413 kts | 217° |
| 2026-05-04 02:45 | 41.29925 | -84.10952 | 26965 ft | 415 kts | 217° |
| 2026-05-04 02:46 | 41.27509 | -84.13035 | 27312 ft | 412 kts | 223° |
| 2026-05-04 02:46 | 41.25437 | -84.15617 | 27661 ft | 405 kts | 235° |
| 2026-05-04 02:46 | 41.23864 | -84.18682 | 27984 ft | 400 kts | 246° |
| 2026-05-04 02:46 | 41.22767 | -84.22007 | 28320 ft | 398 kts | 252° |
| 2026-05-04 02:47 | 41.21775 | -84.25433 | 28659 ft | 399 kts | 253° |
| 2026-05-04 02:47 | 41.20772 | -84.28896 | 28996 ft | 401 kts | 253° |
| 2026-05-04 02:47 | 41.19758 | -84.32349 | 29317 ft | 402 kts | 252° |
| 2026-05-04 02:47 | 41.18727 | -84.35810 | 29635 ft | 404 kts | 252° |
| 2026-05-04 02:48 | 41.17687 | -84.39278 | 29930 ft | 405 kts | 252° |
| 2026-05-04 02:48 | 41.16644 | -84.42751 | 30218 ft | 406 kts | 252° |
| 2026-05-04 02:48 | 41.15595 | -84.46238 | 30492 ft | 407 kts | 252° |
| 2026-05-04 02:48 | 41.14540 | -84.49737 | 30724 ft | 409 kts | 252° |
| 2026-05-04 02:49 | 41.13484 | -84.53235 | 31004 ft | 410 kts | 252° |
| 2026-05-04 02:49 | 41.12423 | -84.56745 | 31318 ft | 409 kts | 252° |
| 2026-05-04 02:49 | 41.11362 | -84.60247 | 31624 ft | 408 kts | 252° |
| 2026-05-04 02:49 | 41.10352 | -84.63749 | 31909 ft | 406 kts | 256° |
| 2026-05-04 02:50 | 41.09641 | -84.67346 | 32161 ft | 403 kts | 261° |
| 2026-05-04 02:50 | 41.09032 | -84.70976 | 32414 ft | 403 kts | 262° |
| 2026-05-04 02:50 | 41.08432 | -84.74606 | 32674 ft | 403 kts | 261° |
| 2026-05-04 02:50 | 41.07826 | -84.78231 | 32931 ft | 402 kts | 261° |
| 2026-05-04 02:51 | 41.07220 | -84.81844 | 33171 ft | 402 kts | 261° |
| 2026-05-04 02:51 | 41.06608 | -84.85459 | 33383 ft | 402 kts | 261° |
| 2026-05-04 02:51 | 41.05996 | -84.89060 | 33622 ft | 401 kts | 261° |
| 2026-05-04 02:51 | 41.05382 | -84.92664 | 33833 ft | 401 kts | 262° |
| 2026-05-04 02:52 | 41.04769 | -84.96263 | 34016 ft | 401 kts | 262° |
| 2026-05-04 02:52 | 41.04152 | -84.99875 | 34227 ft | 401 kts | 261° |
| 2026-05-04 02:52 | 41.03536 | -85.03474 | 34398 ft | 400 kts | 261° |
| 2026-05-04 02:52 | 41.02918 | -85.07079 | 34583 ft | 401 kts | 261° |
| 2026-05-04 02:53 | 41.02300 | -85.10678 | 34743 ft | 401 kts | 261° |
| 2026-05-04 02:53 | 41.01680 | -85.14277 | 34924 ft | 401 kts | 261° |
| 2026-05-04 02:53 | 41.01058 | -85.17884 | 35104 ft | 401 kts | 261° |
| 2026-05-04 02:53 | 41.00437 | -85.21478 | 35279 ft | 401 kts | 261° |
| 2026-05-04 02:54 | 40.99814 | -85.25069 | 35428 ft | 401 kts | 261° |
| 2026-05-04 02:54 | 40.99188 | -85.28666 | 35558 ft | 401 kts | 261° |
| 2026-05-04 02:54 | 40.98564 | -85.32269 | 35697 ft | 401 kts | 261° |
| 2026-05-04 02:54 | 40.97939 | -85.35867 | 35839 ft | 401 kts | 261° |
| 2026-05-04 02:55 | 40.96688 | -85.43017 | 35945 ft | 400 kts | 261° |
| 2026-05-04 02:55 | 40.96059 | -85.46606 | 35929 ft | 400 kts | 261° |
| 2026-05-04 02:56 | 40.94798 | -85.53778 | 35912 ft | 400 kts | 261° |
| 2026-05-04 02:56 | 40.93533 | -85.60948 | 35911 ft | 400 kts | 261° |
| 2026-05-04 02:57 | 40.92263 | -85.68124 | 35910 ft | 400 kts | 261° |
| 2026-05-04 02:57 | 40.90988 | -85.75295 | 35904 ft | 400 kts | 261° |
| 2026-05-04 02:58 | 40.89710 | -85.82449 | 35900 ft | 400 kts | 261° |
| 2026-05-04 02:58 | 40.88468 | -85.89612 | 35892 ft | 398 kts | 263° |
| 2026-05-04 02:59 | 40.87668 | -85.96825 | 35890 ft | 397 kts | 265° |
| 2026-05-04 02:59 | 40.86905 | -86.04044 | 35890 ft | 397 kts | 265° |
| 2026-05-04 03:00 | 40.86136 | -86.11213 | 35890 ft | 396 kts | 265° |
| 2026-05-04 03:00 | 40.85354 | -86.18421 | 35891 ft | 396 kts | 265° |
| 2026-05-04 03:01 | 40.84571 | -86.25632 | 35889 ft | 396 kts | 265° |
| 2026-05-04 03:01 | 40.83783 | -86.32832 | 35893 ft | 396 kts | 265° |
| 2026-05-04 03:02 | 40.82991 | -86.40049 | 35900 ft | 396 kts | 265° |
| 2026-05-04 03:02 | 40.82195 | -86.47250 | 35899 ft | 397 kts | 265° |
| 2026-05-04 03:03 | 40.81391 | -86.54455 | 35900 ft | 397 kts | 265° |
| 2026-05-04 03:03 | 40.80586 | -86.61601 | 35899 ft | 396 kts | 265° |
| 2026-05-04 03:04 | 40.79773 | -86.68831 | 35897 ft | 396 kts | 265° |
| 2026-05-04 03:04 | 40.78962 | -86.75968 | 35891 ft | 396 kts | 265° |
| 2026-05-04 03:05 | 40.78145 | -86.83152 | 35890 ft | 396 kts | 265° |
| 2026-05-04 03:05 | 40.77321 | -86.90326 | 35890 ft | 396 kts | 265° |
| 2026-05-04 03:06 | 40.76494 | -86.97511 | 35887 ft | 396 kts | 265° |
| 2026-05-04 03:06 | 40.75662 | -87.04696 | 35931 ft | 396 kts | 265° |
| 2026-05-04 03:07 | 40.74821 | -87.11884 | 35890 ft | 397 kts | 265° |
| 2026-05-04 03:07 | 40.73978 | -87.19065 | 35882 ft | 396 kts | 265° |
| 2026-05-04 03:08 | 40.73133 | -87.26229 | 35881 ft | 396 kts | 265° |
| 2026-05-04 03:08 | 40.72283 | -87.33392 | 35880 ft | 395 kts | 265° |
| 2026-05-04 03:09 | 40.71432 | -87.40546 | 35881 ft | 395 kts | 265° |
| 2026-05-04 03:09 | 40.70576 | -87.47699 | 35880 ft | 395 kts | 265° |
| 2026-05-04 03:10 | 40.69714 | -87.54838 | 35879 ft | 394 kts | 265° |
| 2026-05-04 03:10 | 40.69284 | -87.58398 | 35996 ft | 394 kts | 265° |
| 2026-05-04 03:10 | 40.68851 | -87.61968 | 35965 ft | 394 kts | 265° |
| 2026-05-04 03:11 | 40.67981 | -87.69111 | 35896 ft | 394 kts | 265° |
| 2026-05-04 03:11 | 40.67108 | -87.76236 | 35882 ft | 394 kts | 265° |
| 2026-05-04 03:12 | 40.66230 | -87.83362 | 35879 ft | 393 kts | 265° |
| 2026-05-04 03:12 | 40.65238 | -87.90443 | 35864 ft | 396 kts | 259° |
| 2026-05-04 03:12 | 40.64219 | -87.93847 | 35864 ft | 404 kts | 248° |
| 2026-05-04 03:13 | 40.62648 | -87.96963 | 35879 ft | 414 kts | 238° |
| 2026-05-04 03:13 | 40.58780 | -88.02663 | 35882 ft | 419 kts | 234° |
| 2026-05-04 03:14 | 40.54875 | -88.08355 | 35882 ft | 418 kts | 234° |
| 2026-05-04 03:14 | 40.50996 | -88.14063 | 35881 ft | 418 kts | 235° |
| 2026-05-04 03:15 | 40.47160 | -88.19723 | 35880 ft | 418 kts | 235° |
| 2026-05-04 03:15 | 40.43285 | -88.25425 | 35881 ft | 418 kts | 234° |
| 2026-05-04 03:16 | 40.39412 | -88.31113 | 35881 ft | 418 kts | 234° |
| 2026-05-04 03:16 | 40.35537 | -88.36792 | 35881 ft | 418 kts | 234° |
| 2026-05-04 03:17 | 40.32287 | -88.41553 | 35881 ft | 418 kts | 234° |
| 2026-05-04 03:17 | 40.28433 | -88.47184 | 35882 ft | 418 kts | 234° |
| 2026-05-04 03:18 | 40.24553 | -88.52841 | 35891 ft | 418 kts | 234° |
| 2026-05-04 03:18 | 40.20666 | -88.58500 | 35890 ft | 418 kts | 234° |
| 2026-05-04 03:19 | 40.16777 | -88.64150 | 35890 ft | 418 kts | 234° |
| 2026-05-04 03:19 | 40.12877 | -88.69808 | 35891 ft | 419 kts | 234° |
| 2026-05-04 03:20 | 40.08971 | -88.75459 | 35891 ft | 419 kts | 234° |
| 2026-05-04 03:20 | 40.05067 | -88.81099 | 35891 ft | 418 kts | 234° |
| 2026-05-04 03:21 | 40.01160 | -88.86734 | 35891 ft | 419 kts | 234° |
| 2026-05-04 03:21 | 39.97245 | -88.92371 | 35891 ft | 418 kts | 235° |
| 2026-05-04 03:22 | 39.93358 | -88.97954 | 35889 ft | 415 kts | 235° |
| 2026-05-04 03:22 | 39.89472 | -89.03522 | 35891 ft | 415 kts | 235° |
| 2026-05-04 03:23 | 39.85595 | -89.09073 | 35890 ft | 414 kts | 235° |
| 2026-05-04 03:23 | 39.81738 | -89.14589 | 35890 ft | 415 kts | 235° |
| 2026-05-04 03:24 | 39.77849 | -89.20140 | 35890 ft | 415 kts | 235° |
| 2026-05-04 03:24 | 39.73957 | -89.25683 | 35899 ft | 415 kts | 235° |
| 2026-05-04 03:25 | 39.70060 | -89.31221 | 35901 ft | 415 kts | 235° |
| 2026-05-04 03:25 | 39.66163 | -89.36750 | 35900 ft | 415 kts | 235° |
| 2026-05-04 03:26 | 39.62260 | -89.42270 | 35900 ft | 415 kts | 235° |
| 2026-05-04 03:26 | 39.58353 | -89.47794 | 35900 ft | 415 kts | 235° |
| 2026-05-04 03:27 | 39.54446 | -89.53309 | 35900 ft | 415 kts | 235° |
| 2026-05-04 03:27 | 39.50538 | -89.58812 | 35900 ft | 415 kts | 235° |
| 2026-05-04 03:28 | 39.46622 | -89.64321 | 35901 ft | 416 kts | 235° |
| 2026-05-04 03:28 | 39.42719 | -89.69799 | 35896 ft | 414 kts | 235° |
| 2026-05-04 03:29 | 39.38800 | -89.75288 | 35898 ft | 416 kts | 235° |
| 2026-05-04 03:29 | 39.34879 | -89.80771 | 35900 ft | 416 kts | 235° |
| 2026-05-04 03:30 | 39.30954 | -89.86257 | 35900 ft | 415 kts | 235° |
| 2026-05-04 03:30 | 39.27029 | -89.91728 | 35892 ft | 415 kts | 235° |
| 2026-05-04 03:31 | 39.23097 | -89.97192 | 35890 ft | 415 kts | 235° |
| 2026-05-04 03:31 | 39.19171 | -90.02648 | 35891 ft | 415 kts | 235° |
| 2026-05-04 03:32 | 39.15246 | -90.08087 | 35883 ft | 414 kts | 236° |
| 2026-05-04 03:32 | 39.11325 | -90.13518 | 35882 ft | 414 kts | 236° |
| 2026-05-04 03:33 | 39.07402 | -90.18936 | 35881 ft | 414 kts | 235° |
| 2026-05-04 03:33 | 39.03483 | -90.24340 | 35879 ft | 413 kts | 235° |
| 2026-05-04 03:34 | 38.99558 | -90.29744 | 35869 ft | 413 kts | 235° |
| 2026-05-04 03:34 | 38.95634 | -90.35137 | 35860 ft | 413 kts | 236° |
| 2026-05-04 03:35 | 38.91709 | -90.40523 | 35865 ft | 413 kts | 235° |
| 2026-05-04 03:35 | 38.87779 | -90.45902 | 35851 ft | 413 kts | 235° |
| 2026-05-04 03:36 | 38.83953 | -90.51348 | 35871 ft | 410 kts | 237° |
| 2026-05-04 03:36 | 38.80208 | -90.56861 | 35883 ft | 410 kts | 237° |
| 2026-05-04 03:37 | 38.76465 | -90.62363 | 35881 ft | 410 kts | 237° |
| 2026-05-04 03:37 | 38.72712 | -90.67869 | 35881 ft | 411 kts | 237° |
| 2026-05-04 03:38 | 38.68950 | -90.73376 | 35880 ft | 410 kts | 237° |
| 2026-05-04 03:38 | 38.65186 | -90.78874 | 35881 ft | 411 kts | 237° |
| 2026-05-04 03:39 | 38.61414 | -90.84373 | 35883 ft | 411 kts | 237° |
| 2026-05-04 03:39 | 38.57647 | -90.89857 | 35891 ft | 411 kts | 237° |
| 2026-05-04 03:40 | 38.53874 | -90.95347 | 35890 ft | 411 kts | 237° |
| 2026-05-04 03:40 | 38.50116 | -91.00799 | 35890 ft | 411 kts | 237° |
| 2026-05-04 03:41 | 38.46339 | -91.06270 | 35898 ft | 410 kts | 237° |
| 2026-05-04 03:41 | 38.42562 | -91.11732 | 35905 ft | 410 kts | 237° |
| 2026-05-04 03:42 | 38.38784 | -91.17183 | 35916 ft | 410 kts | 237° |
| 2026-05-04 03:42 | 38.35003 | -91.22635 | 35927 ft | 410 kts | 237° |
| 2026-05-04 03:43 | 38.31232 | -91.28061 | 35930 ft | 410 kts | 237° |
| 2026-05-04 03:43 | 38.27447 | -91.33496 | 35935 ft | 409 kts | 237° |
| 2026-05-04 03:44 | 38.23661 | -91.38926 | 35929 ft | 410 kts | 237° |
| 2026-05-04 03:44 | 38.19873 | -91.44349 | 35928 ft | 410 kts | 237° |
| 2026-05-04 03:45 | 38.16080 | -91.49773 | 35928 ft | 411 kts | 237° |
| 2026-05-04 03:45 | 38.12281 | -91.55195 | 35926 ft | 411 kts | 237° |
| 2026-05-04 03:46 | 38.08469 | -91.60622 | 35921 ft | 411 kts | 236° |
| 2026-05-04 03:46 | 38.04688 | -91.65999 | 35921 ft | 410 kts | 236° |
| 2026-05-04 03:47 | 38.00863 | -91.71429 | 35921 ft | 410 kts | 236° |
| 2026-05-04 03:47 | 37.97082 | -91.76790 | 35921 ft | 411 kts | 236° |
| 2026-05-04 03:48 | 37.93240 | -91.82217 | 35920 ft | 411 kts | 236° |
| 2026-05-04 03:48 | 37.89446 | -91.87575 | 35921 ft | 411 kts | 236° |
| 2026-05-04 03:49 | 37.85623 | -91.92960 | 35920 ft | 411 kts | 236° |
| 2026-05-04 03:49 | 37.81797 | -91.98343 | 35919 ft | 411 kts | 236° |
| 2026-05-04 03:50 | 37.77972 | -92.03713 | 35922 ft | 411 kts | 236° |
| 2026-05-04 03:50 | 37.74138 | -92.09094 | 35921 ft | 411 kts | 236° |
| 2026-05-04 03:51 | 37.70310 | -92.14458 | 35919 ft | 411 kts | 236° |
| 2026-05-04 03:51 | 37.66476 | -92.19815 | 35921 ft | 411 kts | 236° |
| 2026-05-04 03:52 | 37.62636 | -92.25169 | 35921 ft | 411 kts | 236° |
| 2026-05-04 03:52 | 37.58791 | -92.30524 | 35929 ft | 412 kts | 236° |
| 2026-05-04 03:53 | 37.54973 | -92.35841 | 35937 ft | 412 kts | 236° |
| 2026-05-04 03:53 | 37.51129 | -92.41195 | 35938 ft | 412 kts | 236° |
| 2026-05-04 03:54 | 37.47270 | -92.46549 | 35943 ft | 412 kts | 236° |
| 2026-05-04 03:54 | 37.43412 | -92.51885 | 35949 ft | 412 kts | 236° |
| 2026-05-04 03:55 | 37.39554 | -92.57219 | 35950 ft | 412 kts | 236° |
| 2026-05-04 03:55 | 37.35694 | -92.62547 | 35950 ft | 413 kts | 236° |
| 2026-05-04 03:56 | 37.31821 | -92.67879 | 35951 ft | 413 kts | 236° |
| 2026-05-04 03:56 | 37.27941 | -92.73208 | 35950 ft | 413 kts | 235° |
| 2026-05-04 03:57 | 37.24060 | -92.78538 | 35951 ft | 413 kts | 235° |
| 2026-05-04 03:57 | 37.20183 | -92.83854 | 35954 ft | 413 kts | 235° |
| 2026-05-04 03:58 | 37.14359 | -92.91822 | 35950 ft | 413 kts | 235° |
| 2026-05-04 03:58 | 37.10464 | -92.97139 | 35950 ft | 413 kts | 235° |
| 2026-05-04 03:59 | 37.06575 | -93.02437 | 35949 ft | 413 kts | 235° |
| 2026-05-04 03:59 | 37.03343 | -93.06838 | 35950 ft | 413 kts | 235° |
| 2026-05-04 04:00 | 36.99446 | -93.12137 | 35949 ft | 414 kts | 235° |
| 2026-05-04 04:00 | 36.95544 | -93.17428 | 35957 ft | 414 kts | 235° |
| 2026-05-04 04:01 | 36.91634 | -93.22720 | 35963 ft | 414 kts | 235° |
| 2026-05-04 04:01 | 36.87729 | -93.28002 | 35970 ft | 414 kts | 235° |
| 2026-05-04 04:02 | 36.83822 | -93.33277 | 35970 ft | 413 kts | 234° |
| 2026-05-04 04:02 | 36.79914 | -93.38543 | 35969 ft | 413 kts | 234° |
| 2026-05-04 04:03 | 36.76003 | -93.43801 | 35970 ft | 414 kts | 234° |
| 2026-05-04 04:03 | 36.72088 | -93.49061 | 35971 ft | 414 kts | 234° |
| 2026-05-04 04:04 | 36.68171 | -93.54318 | 35970 ft | 414 kts | 234° |
| 2026-05-04 04:04 | 36.64244 | -93.59574 | 35973 ft | 414 kts | 234° |
| 2026-05-04 04:05 | 36.60343 | -93.64791 | 35980 ft | 414 kts | 234° |
| 2026-05-04 04:05 | 36.56413 | -93.70033 | 35980 ft | 414 kts | 234° |
| 2026-05-04 04:06 | 36.52484 | -93.75274 | 35984 ft | 414 kts | 234° |
| 2026-05-04 04:06 | 36.48552 | -93.80506 | 35992 ft | 414 kts | 234° |
| 2026-05-04 04:07 | 36.44621 | -93.85730 | 35992 ft | 414 kts | 234° |
| 2026-05-04 04:07 | 36.40685 | -93.90953 | 35997 ft | 414 kts | 234° |
| 2026-05-04 04:08 | 36.36742 | -93.96173 | 36005 ft | 414 kts | 234° |
| 2026-05-04 04:08 | 36.32797 | -94.01383 | 36009 ft | 414 kts | 234° |
| 2026-05-04 04:09 | 36.28854 | -94.06582 | 36011 ft | 414 kts | 234° |
| 2026-05-04 04:09 | 36.24479 | -94.11210 | 36005 ft | 428 kts | 217° |
| 2026-05-04 04:10 | 36.21686 | -94.12666 | 36005 ft | 445 kts | 203° |
| 2026-05-04 04:10 | 36.18605 | -94.13393 | 36009 ft | 454 kts | 195° |
| 2026-05-04 04:10 | 36.12316 | -94.14372 | 36003 ft | 455 kts | 195° |
| 2026-05-04 04:11 | 36.06047 | -94.15423 | 36005 ft | 454 kts | 196° |
| 2026-05-04 04:11 | 35.99783 | -94.16524 | 36009 ft | 454 kts | 196° |
| 2026-05-04 04:12 | 35.93526 | -94.17626 | 36009 ft | 454 kts | 196° |
| 2026-05-04 04:12 | 35.87267 | -94.18725 | 36009 ft | 454 kts | 196° |
| 2026-05-04 04:13 | 35.81011 | -94.19821 | 36008 ft | 454 kts | 196° |
| 2026-05-04 04:13 | 35.74759 | -94.20914 | 36012 ft | 453 kts | 196° |
| 2026-05-04 04:14 | 35.68516 | -94.22004 | 36011 ft | 453 kts | 196° |
| 2026-05-04 04:14 | 35.62257 | -94.23097 | 36012 ft | 454 kts | 196° |
| 2026-05-04 04:15 | 35.55996 | -94.24186 | 36013 ft | 454 kts | 196° |
| 2026-05-04 04:15 | 35.49734 | -94.25274 | 36016 ft | 455 kts | 196° |
| 2026-05-04 04:16 | 35.43467 | -94.26357 | 36018 ft | 455 kts | 196° |
| 2026-05-04 04:16 | 35.37227 | -94.27430 | 36021 ft | 456 kts | 196° |
| 2026-05-04 04:17 | 35.30942 | -94.28509 | 36024 ft | 457 kts | 197° |
| 2026-05-04 04:17 | 35.24637 | -94.29587 | 36027 ft | 457 kts | 197° |
| 2026-05-04 04:18 | 35.18327 | -94.30660 | 36029 ft | 458 kts | 197° |
| 2026-05-04 04:18 | 35.12016 | -94.31734 | 36032 ft | 458 kts | 197° |
| 2026-05-04 04:19 | 35.05783 | -94.33049 | 36026 ft | 445 kts | 208° |
| 2026-05-04 04:19 | 35.03056 | -94.34663 | 36034 ft | 427 kts | 223° |
| 2026-05-04 04:19 | 35.00841 | -94.36946 | 36037 ft | 411 kts | 236° |
| 2026-05-04 04:20 | 34.99184 | -94.39705 | 36059 ft | 397 kts | 248° |
| 2026-05-04 04:20 | 34.98035 | -94.42718 | 36060 ft | 389 kts | 255° |
| 2026-05-04 04:20 | 34.96013 | -94.48812 | 36051 ft | 386 kts | 254° |
| 2026-05-04 04:21 | 34.93946 | -94.54839 | 36036 ft | 384 kts | 254° |
| 2026-05-04 04:21 | 34.91868 | -94.60792 | 36048 ft | 386 kts | 254° |
| 2026-05-04 04:22 | 34.89735 | -94.66873 | 36037 ft | 391 kts | 253° |
| 2026-05-04 04:22 | 34.87591 | -94.72962 | 36036 ft | 391 kts | 254° |
| 2026-05-04 04:23 | 34.85448 | -94.79039 | 36047 ft | 391 kts | 254° |
| 2026-05-04 04:23 | 34.83286 | -94.85108 | 36036 ft | 391 kts | 252° |
| 2026-05-04 04:24 | 34.80035 | -94.90542 | 36033 ft | 410 kts | 232° |
| 2026-05-04 04:24 | 34.75658 | -94.94999 | 36029 ft | 410 kts | 229° |
| 2026-05-04 04:25 | 34.71253 | -94.99423 | 36032 ft | 413 kts | 230° |
| 2026-05-04 04:25 | 34.66812 | -95.03944 | 36044 ft | 417 kts | 230° |
| 2026-05-04 04:26 | 34.62358 | -95.08477 | 36037 ft | 417 kts | 230° |
| 2026-05-04 04:26 | 34.57910 | -95.13000 | 36046 ft | 417 kts | 230° |
| 2026-05-04 04:27 | 34.53453 | -95.17517 | 36051 ft | 416 kts | 230° |
| 2026-05-04 04:27 | 34.49051 | -95.21980 | 36042 ft | 413 kts | 230° |
| 2026-05-04 04:28 | 34.44664 | -95.26426 | 36057 ft | 409 kts | 230° |
| 2026-05-04 04:28 | 34.40285 | -95.30844 | 36057 ft | 412 kts | 230° |
| 2026-05-04 04:29 | 34.35844 | -95.35319 | 36063 ft | 417 kts | 230° |
| 2026-05-04 04:29 | 34.31376 | -95.39803 | 36058 ft | 417 kts | 230° |
| 2026-05-04 04:30 | 34.26912 | -95.44283 | 36059 ft | 417 kts | 230° |
| 2026-05-04 04:30 | 34.24691 | -95.46508 | 35657 ft | 411 kts | 230° |
| 2026-05-04 04:30 | 34.22495 | -95.48704 | 35012 ft | 409 kts | 230° |
| 2026-05-04 04:31 | 34.20315 | -95.50887 | 34380 ft | 406 kts | 230° |
| 2026-05-04 04:31 | 34.18143 | -95.53056 | 33767 ft | 404 kts | 230° |
| 2026-05-04 04:31 | 34.15981 | -95.55217 | 33222 ft | 402 kts | 230° |
| 2026-05-04 04:31 | 34.13834 | -95.57362 | 32683 ft | 399 kts | 230° |
| 2026-05-04 04:32 | 34.11697 | -95.59493 | 32130 ft | 397 kts | 229° |
| 2026-05-04 04:32 | 34.09576 | -95.61607 | 31584 ft | 395 kts | 229° |
| 2026-05-04 04:32 | 34.07463 | -95.63712 | 31034 ft | 393 kts | 229° |
| 2026-05-04 04:32 | 34.05360 | -95.65801 | 30509 ft | 390 kts | 228° |
| 2026-05-04 04:33 | 34.03271 | -95.67871 | 29997 ft | 387 kts | 228° |
| 2026-05-04 04:33 | 34.01225 | -95.69903 | 29460 ft | 385 kts | 227° |
| 2026-05-04 04:33 | 33.99166 | -95.71949 | 28926 ft | 383 kts | 227° |
| 2026-05-04 04:33 | 33.97111 | -95.73988 | 28401 ft | 381 kts | 227° |
| 2026-05-04 04:34 | 33.95070 | -95.76013 | 27882 ft | 379 kts | 227° |
| 2026-05-04 04:34 | 33.93051 | -95.78034 | 27365 ft | 376 kts | 227° |
| 2026-05-04 04:34 | 33.91046 | -95.80045 | 26839 ft | 375 kts | 226° |
| 2026-05-04 04:34 | 33.89052 | -95.82043 | 26302 ft | 373 kts | 226° |
| 2026-05-04 04:35 | 33.87055 | -95.84041 | 25798 ft | 371 kts | 226° |
| 2026-05-04 04:35 | 33.85077 | -95.86015 | 25307 ft | 368 kts | 226° |
| 2026-05-04 04:35 | 33.83109 | -95.87977 | 24812 ft | 366 kts | 225° |
| 2026-05-04 04:35 | 33.81144 | -95.89925 | 24292 ft | 365 kts | 225° |
| 2026-05-04 04:36 | 33.79187 | -95.91855 | 23791 ft | 363 kts | 225° |
| 2026-05-04 04:36 | 33.77236 | -95.93779 | 23289 ft | 362 kts | 224° |
| 2026-05-04 04:36 | 33.75296 | -95.95691 | 22791 ft | 360 kts | 224° |
| 2026-05-04 04:36 | 33.73362 | -95.97596 | 22297 ft | 359 kts | 224° |
| 2026-05-04 04:37 | 33.67605 | -96.03269 | 20766 ft | 355 kts | 223° |
| 2026-05-04 04:37 | 33.65702 | -96.05144 | 20287 ft | 353 kts | 223° |
| 2026-05-04 04:38 | 33.63813 | -96.07002 | 19820 ft | 350 kts | 223° |
| 2026-05-04 04:38 | 33.61930 | -96.08848 | 19359 ft | 348 kts | 223° |
| 2026-05-04 04:38 | 33.60060 | -96.10683 | 18921 ft | 346 kts | 222° |
| 2026-05-04 04:38 | 33.58200 | -96.12511 | 18489 ft | 345 kts | 222° |
| 2026-05-04 04:39 | 33.56345 | -96.14333 | 18054 ft | 343 kts | 222° |
| 2026-05-04 04:39 | 33.54499 | -96.16143 | 17614 ft | 343 kts | 222° |
| 2026-05-04 04:39 | 33.52652 | -96.17952 | 17188 ft | 342 kts | 221° |
| 2026-05-04 04:39 | 33.50812 | -96.19753 | 16770 ft | 341 kts | 221° |
| 2026-05-04 04:40 | 33.48976 | -96.21550 | 16355 ft | 341 kts | 221° |
| 2026-05-04 04:40 | 33.47163 | -96.23323 | 15939 ft | 341 kts | 221° |
| 2026-05-04 04:40 | 33.45306 | -96.25144 | 15515 ft | 341 kts | 222° |
| 2026-05-04 04:40 | 33.43647 | -96.27110 | 15112 ft | 338 kts | 230° |
| 2026-05-04 04:41 | 33.42104 | -96.29235 | 14682 ft | 338 kts | 231° |
| 2026-05-04 04:41 | 33.40563 | -96.31377 | 14231 ft | 338 kts | 230° |
| 2026-05-04 04:41 | 33.39039 | -96.33490 | 13783 ft | 333 kts | 230° |
| 2026-05-04 04:41 | 33.37534 | -96.35571 | 13352 ft | 327 kts | 230° |
| 2026-05-04 04:42 | 33.36059 | -96.37605 | 12954 ft | 321 kts | 230° |
| 2026-05-04 04:42 | 33.34613 | -96.39596 | 12574 ft | 313 kts | 230° |
| 2026-05-04 04:42 | 33.33209 | -96.41557 | 12178 ft | 311 kts | 233° |
| 2026-05-04 04:42 | 33.32171 | -96.43806 | 11792 ft | 306 kts | 249° |
| 2026-05-04 04:43 | 33.31498 | -96.46169 | 11573 ft | 295 kts | 251° |
| 2026-05-04 04:43 | 33.30877 | -96.48469 | 11209 ft | 286 kts | 251° |
| 2026-05-04 04:43 | 33.30269 | -96.50698 | 10806 ft | 278 kts | 251° |
| 2026-05-04 04:43 | 33.29675 | -96.52850 | 10438 ft | 276 kts | 251° |
| 2026-05-04 04:44 | 33.29071 | -96.55022 | 10116 ft | 273 kts | 251° |
| 2026-05-04 04:44 | 33.28604 | -96.57204 | 9809 ft | 272 kts | 263° |
| 2026-05-04 04:44 | 33.28487 | -96.59459 | 9482 ft | 271 kts | 266° |
| 2026-05-04 04:44 | 33.28414 | -96.61706 | 9156 ft | 269 kts | 266° |
| 2026-05-04 04:45 | 33.28362 | -96.63182 | 8943 ft | 268 kts | 266° |
| 2026-05-04 04:45 | 33.28244 | -96.66148 | 8513 ft | 266 kts | 265° |
| 2026-05-04 04:45 | 33.28182 | -96.67613 | 8304 ft | 265 kts | 265° |
| 2026-05-04 04:47 | 33.27592 | -96.80507 | 6457 ft | 253 kts | 264° |
| 2026-05-04 04:47 | 33.27495 | -96.82575 | 6240 ft | 244 kts | 264° |
| 2026-05-04 04:47 | 33.27400 | -96.84572 | 5991 ft | 239 kts | 264° |
| 2026-05-04 04:47 | 33.27036 | -96.86460 | 5750 ft | 230 kts | 242° |
| 2026-05-04 04:48 | 33.26085 | -96.87937 | 5537 ft | 224 kts | 219° |
| 2026-05-04 04:49 | 33.20193 | -96.89723 | 4690 ft | 220 kts | 211° |
| 2026-05-04 04:49 | 33.18922 | -96.90726 | 4480 ft | 219 kts | 214° |
| 2026-05-04 04:49 | 33.17666 | -96.91754 | 4255 ft | 218 kts | 213° |
| 2026-05-04 04:49 | 33.16414 | -96.92767 | 4045 ft | 217 kts | 213° |
| 2026-05-04 04:50 | 33.15175 | -96.93758 | 3829 ft | 215 kts | 213° |
| 2026-05-04 04:50 | 33.13911 | -96.94765 | 3611 ft | 215 kts | 213° |
| 2026-05-04 04:50 | 33.12671 | -96.95749 | 3397 ft | 212 kts | 213° |
| 2026-05-04 04:50 | 33.11438 | -96.96729 | 3177 ft | 213 kts | 212° |
| 2026-05-04 04:51 | 33.10213 | -96.97700 | 2992 ft | 209 kts | 212° |
| 2026-05-04 04:51 | 33.09008 | -96.98647 | 2955 ft | 202 kts | 213° |
| 2026-05-04 04:51 | 33.08047 | -96.99402 | 2939 ft | 188 kts | 212° |
| 2026-05-04 04:51 | 33.07296 | -96.99991 | 2946 ft | 187 kts | 212° |
| 2026-05-04 04:52 | 33.06497 | -97.00624 | 2965 ft | 187 kts | 212° |
| 2026-05-04 04:52 | 33.05638 | -97.01302 | 2976 ft | 187 kts | 212° |
| 2026-05-04 04:52 | 33.04585 | -97.02117 | 2983 ft | 188 kts | 206° |
| 2026-05-04 04:52 | 33.03419 | -97.02520 | 2977 ft | 188 kts | 187° |
| 2026-05-04 04:53 | 33.02107 | -97.02558 | 2797 ft | 187 kts | 179° |
| 2026-05-04 04:53 | 33.00836 | -97.02550 | 2541 ft | 190 kts | 180° |
| 2026-05-04 04:53 | 32.99540 | -97.02536 | 2241 ft | 183 kts | 180° |
| 2026-05-04 04:53 | 32.98335 | -97.02560 | 2115 ft | 167 kts | 182° |
| 2026-05-04 04:54 | 32.97143 | -97.02637 | 1711 ft | 169 kts | 182° |
| 2026-05-04 04:54 | 32.95985 | -97.02587 | 1408 ft | 161 kts | 177° |
| 2026-05-04 04:54 | 32.94976 | -97.02578 | 1255 ft | 132 kts | 179° |
| 2026-05-04 04:54 | 32.94071 | -97.02578 | 1084 ft | 130 kts | 180° |
| 2026-05-04 04:55 | 32.93163 | -97.02582 | 921 ft | 131 kts | 180° |
| 2026-05-04 04:55 | 32.92258 | -97.02586 | 748 ft | 131 kts | 180° |
| 2026-05-04 04:55 | 32.91385 | -97.02591 | 602 ft | 132 kts | 180° |
| 2026-05-04 04:55 | 32.90644 | -97.02593 | 580 ft | 102 kts | 181° |
| 2026-05-04 04:56 | 32.90075 | -97.02603 | 577 ft | 64 kts | 181° |
| 2026-05-04 04:56 | 32.89758 | -97.02596 | 573 ft | 16 kts | 183° |
| 2026-05-04 04:56 | 32.89668 | -97.02619 | 575 ft | 14 kts | 202° |
| 2026-05-04 04:56 | 32.89576 | -97.02675 | 577 ft | 16 kts | 215° |
| 2026-05-04 04:57 | 32.89491 | -97.02743 | 577 ft | 11 kts | 208° |
| 2026-05-04 04:57 | 32.89418 | -97.02789 | 577 ft | 8 kts | 208° |
| 2026-05-04 04:57 | 32.89416 | -97.02790 | 575 ft | 1 kts | 208° |
| 2026-05-04 04:57 | 32.89386 | -97.02802 | 576 ft | 17 kts | 193° |
| 2026-05-04 04:58 | 32.89301 | -97.02814 | 578 ft | 14 kts | 176° |
| 2026-05-04 04:58 | 32.89196 | -97.02807 | 580 ft | 16 kts | 177° |
| 2026-05-04 04:58 | 32.89113 | -97.02804 | 583 ft | 12 kts | 179° |
| 2026-05-04 04:58 | 32.89038 | -97.02855 | 579 ft | 14 kts | 255° |
| 2026-05-04 04:59 | 32.89037 | -97.02981 | 579 ft | 16 kts | 271° |
| 2026-05-04 04:59 | 32.89037 | -97.03119 | 576 ft | 17 kts | 271° |
| 2026-05-04 04:59 | 32.89038 | -97.03160 | 575 ft | 3 kts | 271° |
| 2026-05-04 04:59 | 32.89038 | -97.03194 | 576 ft | 6 kts | 270° |
| 2026-05-04 05:00 | 32.89038 | -97.03259 | 581 ft | 10 kts | 266° |
| 2026-05-04 05:00 | 32.89032 | -97.03294 | 585 ft | 0 kts | 248° |